Time;durP1;ratioP1;P1;durP2;ratioP2;P2;SDS_P1;SDS_P2;PMS_P1;PMS_P2;Temp;Humidity;BMP_temperature;BMP_pressure;BME280_temperature;BME280_humidity;BME280_pressure;Samples;Min_cycle;Max_cycle;Signal;HPM_P1;HPM_P2
2023/07/19 00:02:00;;;;;;;;;;;;;;;28.60;36.52;100561.38;5076001;28;1119;-14
2023/07/19 00:04:25;;;;;;;;;;;;;;;28.60;36.16;100561.38;5075779;28;1229;-14
2023/07/19 00:06:51;;;;;;;;;;;;;;;28.56;36.35;100562.84;5076166;28;1039;-14
2023/07/19 00:09:16;;;;;;;;;;;;;;;28.49;36.36;100557.38;5075787;28;1910;-14
2023/07/19 00:11:42;;;;;;;;;;;;;;;28.52;36.24;100566.94;5076270;28;1134;-14
2023/07/19 00:14:08;;;;;;;;;;;;;;;28.50;36.49;100564.44;5075833;28;1162;-14
2023/07/19 00:16:33;;;;;;;;;;;;;;;28.54;36.12;100556.78;5075946;28;1019;-14
2023/07/19 00:18:59;;;;;;;;;;;;;;;28.58;36.39;100556.19;5076113;28;1139;-14
2023/07/19 00:21:25;;;;;;;;;;;;;;;28.54;35.93;100552.22;5075714;28;860;-14
2023/07/19 00:23:50;;;;;;;;;;;;;;;28.50;36.48;100544.66;5075461;28;2517;-14
2023/07/19 00:26:16;;;;;;;;;;;;;;;28.54;36.51;100535.13;5075779;28;1209;-14
2023/07/19 00:28:42;;;;;;;;;;;;;;;28.58;36.17;100544.50;5076372;28;1906;-14
2023/07/19 00:31:07;;;;;;;;;;;;;;;28.47;36.85;100545.91;5061799;28;1343;-14
2023/07/19 00:33:33;;;;;;;;;;;;;;;28.51;36.59;100533.63;5079237;28;1094;-14
2023/07/19 00:35:59;;;;;;;;;;;;;;;28.44;36.47;100525.50;5061922;28;1130;-14
2023/07/19 00:38:24;;;;;;;;;;;;;;;28.50;36.53;100523.00;5079626;28;1110;-14
2023/07/19 00:40:50;;;;;;;;;;;;;;;28.55;36.41;100512.44;5079914;28;1015;-14
2023/07/19 00:43:15;;;;;;;;;;;;;;;28.40;36.66;100497.16;5078536;28;1134;-14
2023/07/19 00:45:44;;;;;;;;;;;;;;;28.47;36.49;100503.47;5079266;28;923;-14
2023/07/19 00:48:10;;;;;;;;;;;;;;;28.46;36.23;100501.78;5079709;28;1906;-14
2023/07/19 00:50:35;;;;;;;;;;;;;;;28.47;36.59;100506.16;5061483;28;1043;-14
2023/07/19 00:53:01;;;;;;;;;;;;;;;28.53;36.05;100501.81;5079679;28;1222;-14
2023/07/19 00:55:26;;;;;;;;;;;;;;;28.40;36.33;100502.56;5052024;28;2542;-14
2023/07/19 00:57:52;;;;;;;;;;;;;;;28.48;36.43;100507.81;5079301;28;1000;-14
2023/07/19 01:00:19;;;;;;;;;;;;;;;28.52;35.99;100499.31;5079085;28;1143;-14
2023/07/19 01:02:45;;;;;;;;;;;;;;;28.50;36.41;100495.97;5061697;28;1116;-14
2023/07/19 01:05:11;;;;;;;;;;;;;;;28.44;37.00;100498.44;5049943;28;1042;-14
2023/07/19 01:07:37;;;;;;;;;;;;;;;28.48;36.68;100488.03;5076118;28;1971;-14
2023/07/19 01:10:03;;;;;;;;;;;;;;;28.57;36.35;100480.59;5078994;28;944;-14
2023/07/19 01:12:29;;;;;;;;;;;;;;;28.54;36.05;100481.00;5061401;28;1043;-14
2023/07/19 01:14:55;;;;;;;;;;;;;;;28.57;36.22;100486.88;5061279;28;1154;-14
2023/07/19 01:17:21;;;;;;;;;;;;;;;28.48;36.13;100471.81;5079043;28;1060;-14
2023/07/19 01:19:46;;;;;;;;;;;;;;;28.51;35.99;100466.00;5060992;28;1142;-14
2023/07/19 01:22:12;;;;;;;;;;;;;;;28.54;36.51;100467.47;5060813;28;1103;-14
2023/07/19 01:24:41;;;;;;;;;;;;;;;28.52;35.43;100462.28;5076455;28;2476;-14
2023/07/19 01:27:06;;;;;;;;;;;;;;;28.53;36.23;100474.75;5078964;28;1906;-14
2023/07/19 01:29:32;;;;;;;;;;;;;;;28.46;36.31;100466.59;5061106;28;1261;-14
2023/07/19 01:31:58;;;;;;;;;;;;;;;28.58;36.64;100482.28;5078429;28;1036;-14
2023/07/19 01:34:24;;;;;;;;;;;;;;;28.59;36.76;100476.66;5043689;28;999;-14
2023/07/19 01:36:51;;;;;;;;;;;;;;;28.58;36.69;100495.81;5076321;28;1110;-14
2023/07/19 01:39:17;;;;;;;;;;;;;;;28.50;36.72;100496.81;5078646;28;1067;-14
2023/07/19 01:41:42;;;;;;;;;;;;;;;28.55;36.39;100493.50;5060194;28;1035;-14
2023/07/19 01:44:08;;;;;;;;;;;;;;;28.46;36.32;100480.13;5060645;28;1395;-14
2023/07/19 01:46:38;;;;;;;;;;;;;;;28.57;36.56;100488.72;5078322;28;892;-14
2023/07/19 01:49:03;;;;;;;;;;;;;;;28.55;35.90;100488.94;5078620;28;1910;-14
2023/07/19 01:51:29;;;;;;;;;;;;;;;28.61;36.44;100481.91;5060558;28;1039;-14
2023/07/19 01:53:55;;;;;;;;;;;;;;;28.53;36.84;100474.75;5078472;28;1827;-14
2023/07/19 01:56:20;;;;;;;;;;;;;;;28.59;36.39;100475.84;5077971;28;1237;-14
2023/07/19 01:58:46;;;;;;;;;;;;;;;28.56;35.88;100481.66;5060159;28;1082;-14
2023/07/19 02:01:11;;;;;;;;;;;;;;;28.50;36.23;100491.38;5060387;28;1217;-14
2023/07/19 02:03:37;;;;;;;;;;;;;;;28.46;36.51;100488.25;5078415;28;1070;-14
2023/07/19 02:06:03;;;;;;;;;;;;;;;28.52;36.29;100497.44;5078372;28;1107;-14
2023/07/19 02:08:28;;;;;;;;;;;;;;;28.51;36.66;100494.94;5078177;28;1907;-14
2023/07/19 02:10:54;;;;;;;;;;;;;;;28.48;36.86;100496.16;5078020;28;927;-14
2023/07/19 02:13:20;;;;;;;;;;;;;;;28.55;37.28;100483.50;5060195;28;1183;-14
2023/07/19 02:15:47;;;;;;;;;;;;;;;28.42;36.85;100486.13;5078181;28;1106;-14
2023/07/19 02:18:12;;;;;;;;;;;;;;;28.41;36.80;100496.13;5078186;28;987;-14
2023/07/19 02:20:43;;;;;;;;;;;;;;;28.39;36.27;100487.38;5060256;28;1138;-14
2023/07/19 02:23:09;;;;;;;;;;;;;;;28.44;36.33;100490.34;5059350;28;2262;-14
2023/07/19 02:25:34;;;;;;;;;;;;;;;28.46;36.88;100490.94;5077941;28;1046;-14
2023/07/19 02:28:00;;;;;;;;;;;;;;;28.52;35.79;100492.03;5077879;28;1914;-14
2023/07/19 02:30:29;;;;;;;;;;;;;;;28.56;36.42;100482.47;5060271;28;1146;-14
2023/07/19 02:32:55;;;;;;;;;;;;;;;28.61;36.28;100500.84;5077337;28;1263;-14
2023/07/19 02:35:20;;;;;;;;;;;;;;;28.50;36.83;100512.19;5077427;28;1059;-14
2023/07/19 02:37:46;;;;;;;;;;;;;;;28.31;36.36;100515.38;5077730;28;1086;-14
2023/07/19 02:40:12;;;;;;;;;;;;;;;28.30;36.79;100512.88;5077608;28;1193;-14
2023/07/19 02:42:37;;;;;;;;;;;;;;;28.22;36.56;100511.16;5077748;28;1091;-14
2023/07/19 02:45:04;;;;;;;;;;;;;;;28.02;37.70;100522.66;5059445;28;1147;-14
2023/07/19 02:47:29;;;;;;;;;;;;;;;28.16;37.23;100528.16;5077099;28;1906;-14
2023/07/19 02:49:55;;;;;;;;;;;;;;;28.22;36.58;100533.63;5059281;28;1147;-14
2023/07/19 02:52:20;;;;;;;;;;;;;;;28.16;36.79;100533.56;5076707;28;1123;-14
2023/07/19 02:54:46;;;;;;;;;;;;;;;28.05;36.94;100522.25;5059564;28;2271;-14
2023/07/19 02:57:12;;;;;;;;;;;;;;;28.01;37.34;100526.38;5077378;28;1072;-14
2023/07/19 02:59:37;;;;;;;;;;;;;;;28.01;37.35;100528.25;5059187;28;1293;-14
2023/07/19 03:02:03;;;;;;;;;;;;;;;28.01;37.27;100537.19;5059128;28;2002;-14
2023/07/19 03:04:28;;;;;;;;;;;;;;;28.06;37.19;100532.03;5076992;28;1040;-14
2023/07/19 03:06:54;;;;;;;;;;;;;;;28.09;36.87;100523.53;5077156;28;1059;-14
2023/07/19 03:09:20;;;;;;;;;;;;;;;27.98;37.17;100518.66;5058444;28;1898;-14
2023/07/19 03:11:45;;;;;;;;;;;;;;;28.11;37.10;100524.16;5076948;28;1166;-14
2023/07/19 03:14:11;;;;;;;;;;;;;;;28.02;37.31;100524.50;5059050;28;1273;-14
2023/07/19 03:16:37;;;;;;;;;;;;;;;28.10;37.55;100529.78;5059125;28;1385;-14
2023/07/19 03:19:03;;;;;;;;;;;;;;;28.20;37.33;100526.72;5058801;28;1154;-14
2023/07/19 03:21:29;;;;;;;;;;;;;;;28.07;37.31;100536.41;5058309;28;1210;-14
2023/07/19 03:23:55;;;;;;;;;;;;;;;27.99;37.38;100541.97;5076499;28;2378;-14
2023/07/19 03:26:20;;;;;;;;;;;;;;;28.14;37.53;100543.75;5076538;28;1194;-14
2023/07/19 03:28:46;;;;;;;;;;;;;;;28.13;36.99;100545.59;5058769;28;1930;-14
2023/07/19 03:31:12;;;;;;;;;;;;;;;28.16;36.95;100542.50;5076270;28;1087;-14
2023/07/19 03:33:39;;;;;;;;;;;;;;;28.15;37.05;100538.13;5058096;28;1214;-14
2023/07/19 03:36:05;;;;;;;;;;;;;;;28.05;36.67;100540.34;5063342;28;1027;-14
2023/07/19 03:38:33;;;;;;;;;;;;;;;27.91;37.84;100545.63;5058827;28;1250;-14
2023/07/19 03:41:08;;;;;;;;;;;;;;;27.97;37.39;100538.59;5076259;28;1127;-14
2023/07/19 03:43:34;;;;;;;;;;;;;;;27.89;39.28;100546.84;5058106;28;1135;-14
2023/07/19 03:46:00;;;;;;;;;;;;;;;27.80;39.44;100544.28;5058047;28;1226;-14
2023/07/19 03:48:25;;;;;;;;;;;;;;;27.69;39.57;100542.09;5058088;28;1909;-14
2023/07/19 03:51:09;;;;;;;;;;;;;;;28.01;40.54;100544.47;5058184;28;1303;-14
2023/07/19 03:53:35;;;;;;;;;;;;;;;27.73;41.10;100532.56;5058094;28;1884;-14
2023/07/19 03:56:01;;;;;;;;;;;;;;;27.07;43.07;100526.19;5057686;28;1127;-14
2023/07/19 03:58:26;;;;;;;;;;;;;;;27.17;42.71;100524.03;5055664;28;1204;-14
2023/07/19 04:00:56;;;;;;;;;;;;;;;26.67;36.70;100527.28;5042495;28;1102;-15
2023/07/19 04:03:21;;;;;;;;;;;;;;;27.31;40.30;100524.19;5048373;28;1122;-14
2023/07/19 04:05:47;;;;;;;;;;;;;;;27.02;39.72;100518.66;5051716;28;1375;-14
2023/07/19 04:08:14;;;;;;;;;;;;;;;27.19;41.74;100534.66;5054557;28;1990;-15
2023/07/19 04:10:40;;;;;;;;;;;;;;;21.08;53.81;100518.53;5069722;28;1116;-15
2023/07/19 04:13:06;;;;;;;;;;;;;;;20.06;57.61;100524.38;5057844;28;1127;-15
2023/07/19 04:15:32;;;;;;;;;;;;;;;19.72;56.81;100512.22;5056750;28;1216;-15
2023/07/19 04:17:57;;;;;;;;;;;;;;;19.39;57.73;100508.94;5045488;28;1756;-15
2023/07/19 04:20:23;;;;;;;;;;;;;;;19.38;58.65;100502.78;5046309;28;1202;-16
2023/07/19 04:22:49;;;;;;;;;;;;;;;19.28;59.29;100499.25;5038708;28;1308;-15
2023/07/19 04:25:14;;;;;;;;;;;;;;;19.23;60.21;100502.31;5040432;28;2635;-14
2023/07/19 04:27:40;;;;;;;;;;;;;;;19.13;59.43;100496.09;5047882;28;1973;-14
2023/07/19 04:30:06;;;;;;;;;;;;;;;18.85;60.14;100502.84;5040774;28;1203;-14
2023/07/19 04:32:32;;;;;;;;;;;;;;;18.70;58.74;100506.84;5057568;28;1374;-14
2023/07/19 04:34:58;;;;;;;;;;;;;;;18.63;58.34;100513.69;5050356;28;1157;-14
2023/07/19 04:37:24;;;;;;;;;;;;;;;18.62;58.95;100507.50;5057640;28;1300;-14
2023/07/19 04:39:50;;;;;;;;;;;;;;;21.83;48.10;100500.63;5065862;28;1102;-14
2023/07/19 04:42:16;;;;;;;;;;;;;;;20.67;50.99;100508.09;5042352;28;1305;-14
2023/07/19 04:44:41;;;;;;;;;;;;;;;18.81;58.16;100500.59;5037364;28;1356;-14
2023/07/19 04:47:08;;;;;;;;;;;;;;;18.62;59.50;100512.00;5050349;28;1971;-14
2023/07/19 04:49:35;;;;;;;;;;;;;;;18.37;59.29;100514.91;5055594;28;1220;-14
2023/07/19 04:52:00;;;;;;;;;;;;;;;18.30;58.72;100517.25;5075212;28;1123;-14
2023/07/19 04:54:26;;;;;;;;;;;;;;;18.32;58.55;100509.97;5057263;28;2309;-14
2023/07/19 04:56:53;;;;;;;;;;;;;;;21.06;53.28;100517.84;5057468;28;2003;-14
2023/07/19 04:59:19;;;;;;;;;;;;;;;20.77;53.61;100527.63;5057218;28;1159;-14
2023/07/19 05:01:44;;;;;;;;;;;;;;;19.08;59.32;100523.97;5057018;28;1044;-15
2023/07/19 05:04:10;;;;;;;;;;;;;;;18.53;61.20;100525.13;5057168;28;1241;-15
2023/07/19 05:06:36;;;;;;;;;;;;;;;18.51;62.58;100523.56;5046198;28;1249;-14
2023/07/19 05:09:03;;;;;;;;;;;;;;;18.48;63.61;100516.69;5042476;28;1980;-14
2023/07/19 05:11:30;;;;;;;;;;;;;;;18.46;63.91;100524.81;5051497;28;1280;-14
2023/07/19 05:13:55;;;;;;;;;;;;;;;21.69;55.36;100522.56;5050024;28;1203;-14
2023/07/19 05:16:21;;;;;;;;;;;;;;;20.65;57.21;100513.56;5060874;28;1372;-15
2023/07/19 05:18:47;;;;;;;;;;;;;;;18.84;62.12;100519.81;5061164;28;1102;-15
2023/07/19 05:21:13;;;;;;;;;;;;;;;19.07;61.94;100519.63;5061122;28;1231;-14
2023/07/19 05:23:40;;;;;;;;;;;;;;;22.09;54.65;100512.38;5055105;28;1291;-14
2023/07/19 05:26:06;;;;;;;;;;;;;;;21.38;55.31;100511.19;5074443;28;1174;-14
2023/07/19 05:28:54;;;;;;;;;;;;;;;19.52;59.96;100516.72;5096781;27;1386;-15
2023/07/19 05:31:20;;;;;;;;;;;;;;;19.79;60.57;100517.84;5105112;28;1261;-15
2023/07/19 05:33:46;;;;;;;;;;;;;;;19.95;60.72;100518.13;5090190;28;1403;-12
2023/07/19 05:36:11;;;;;;;;;;;;;;;19.81;61.23;100514.09;5083737;28;1417;-12
2023/07/19 05:38:37;;;;;;;;;;;;;;;19.86;60.79;100507.47;5093297;28;1038;-12
2023/07/19 05:41:03;;;;;;;;;;;;;;;20.05;61.35;100517.34;5083510;28;1264;-12
2023/07/19 05:43:29;;;;;;;;;;;;;;;23.05;51.69;100515.22;5071982;28;1024;-12
2023/07/19 05:46:01;;;;;;;;;;;;;;;20.67;57.85;100508.94;5093428;28;1146;-12
2023/07/19 05:48:26;;;;;;;;;;;;;;;20.23;59.66;100512.13;5093497;28;1972;-12
2023/07/19 05:50:52;;;;;;;;;;;;;;;20.43;60.32;100504.09;5080977;28;1122;-13
2023/07/19 05:53:17;;;;;;;;;;;;;;;20.34;60.07;100499.59;5086556;28;1080;-12
2023/07/19 05:55:43;;;;;;;;;;;;;;;20.14;60.28;100500.47;5085962;28;1134;-12
2023/07/19 05:58:08;;;;;;;;;;;;;;;21.08;60.48;100499.81;5087623;28;1123;-11
2023/07/19 06:00:34;;;;;;;;;;;;;;;24.11;49.64;100502.34;5083282;28;1031;-13
2023/07/19 06:03:00;;;;;;;;;;;;;;;21.28;57.29;100497.88;5082056;28;1180;-12
2023/07/19 06:05:25;;;;;;;;;;;;;;;20.75;58.93;100492.16;5091949;28;1173;-12
2023/07/19 06:07:51;;;;;;;;;;;;;;;20.75;59.79;100489.47;5089754;28;1937;-12
2023/07/19 06:10:17;;;;;;;;;;;;;;;21.07;59.50;100495.44;5085188;28;1070;-13
2023/07/19 06:12:43;;;;;;;;;;;;;;;20.72;60.00;100497.81;5090001;28;901;-12
2023/07/19 06:15:08;;;;;;;;;;;;;;;21.39;60.20;100491.47;5080656;28;1094;-12
2023/07/19 06:17:34;;;;;;;;;;;;;;;24.13;51.02;100490.41;5092885;28;1170;-13
2023/07/19 06:20:00;;;;;;;;;;;;;;;21.61;56.05;100485.81;5081703;28;1383;-15
2023/07/19 06:22:25;;;;;;;;;;;;;;;20.88;58.23;100485.66;5078677;28;1106;-15
2023/07/19 06:24:51;;;;;;;;;;;;;;;20.48;58.86;100471.59;5092063;28;1039;-14
2023/07/19 06:27:17;;;;;;;;;;;;;;;20.40;59.40;100472.31;5086666;28;1971;-14
2023/07/19 06:29:43;;;;;;;;;;;;;;;20.57;59.41;100470.69;5111743;28;1462;-15
2023/07/19 06:32:08;;;;;;;;;;;;;;;20.75;59.99;100469.94;5100188;28;1025;-13
2023/07/19 06:34:34;;;;;;;;;;;;;;;20.58;59.55;100468.88;5106176;28;1055;-13
2023/07/19 06:36:59;;;;;;;;;;;;;;;20.27;60.37;100469.97;5099011;28;895;-14
2023/07/19 06:39:25;;;;;;;;;;;;;;;20.80;59.21;100476.53;5098310;28;1036;-13
2023/07/19 06:41:50;;;;;;;;;;;;;;;23.30;51.71;100480.41;5091479;28;1116;-14
2023/07/19 06:44:16;;;;;;;;;;;;;;;24.04;50.48;100468.06;5097849;28;1267;-13
2023/07/19 06:46:42;;;;;;;;;;;;;;;23.59;52.79;100476.47;5086685;28;1981;-14
2023/07/19 06:49:07;;;;;;;;;;;;;;;24.31;51.86;100479.50;5086564;28;881;-13
2023/07/19 06:51:33;;;;;;;;;;;;;;;23.80;54.10;100466.25;5083388;28;1204;-13
2023/07/19 06:53:58;;;;;;;;;;;;;;;24.54;52.46;100461.81;5099050;28;1128;-13
2023/07/19 06:56:24;;;;;;;;;;;;;;;22.32;58.95;100466.34;5098095;28;1037;-13
2023/07/19 06:58:49;;;;;;;;;;;;;;;23.66;56.42;100462.34;5083829;28;903;-14
2023/07/19 07:01:15;;;;;;;;;;;;;;;24.99;51.95;100464.84;5080538;28;1015;-14
2023/07/19 07:03:40;;;;;;;;;;;;;;;22.31;59.46;100462.81;5088110;28;1117;-14
2023/07/19 07:06:06;;;;;;;;;;;;;;;22.22;59.42;100455.75;5085477;28;1157;-13
2023/07/19 07:08:32;;;;;;;;;;;;;;;24.32;54.00;100464.22;5087979;28;1922;-14
2023/07/19 07:11:01;;;;;;;;;;;;;;;23.29;56.20;100459.09;5095901;28;1216;-14
2023/07/19 07:13:27;;;;;;;;;;;;;;;22.31;59.31;100456.63;5078463;28;1006;-13
2023/07/19 07:15:52;;;;;;;;;;;;;;;24.05;55.19;100459.03;5091628;28;1046;-14
2023/07/19 07:18:18;;;;;;;;;;;;;;;23.92;55.47;100446.06;5089760;28;991;-14
2023/07/19 07:20:44;;;;;;;;;;;;;;;22.05;59.23;100450.25;5093793;28;1081;-14
2023/07/19 07:23:09;;;;;;;;;;;;;;;24.12;54.90;100445.75;5089302;28;1086;-14
2023/07/19 07:25:35;;;;;;;;;;;;;;;23.92;55.38;100451.44;5084982;28;1136;-14
2023/07/19 07:28:01;;;;;;;;;;;;;;;22.11;60.30;100441.59;5098427;28;1971;-14
2023/07/19 07:30:27;;;;;;;;;;;;;;;21.79;60.53;100444.88;5078672;28;1238;-14
2023/07/19 07:32:52;;;;;;;;;;;;;;;24.42;53.76;100447.91;5077894;28;1196;-14
2023/07/19 07:35:18;;;;;;;;;;;;;;;23.38;56.00;100444.69;5092160;28;1040;-13
2023/07/19 07:37:43;;;;;;;;;;;;;;;22.26;62.49;100446.38;5098291;28;1145;-14
2023/07/19 07:40:10;;;;;;;;;;;;;;;24.98;52.69;100454.25;5078919;28;1332;-14
2023/07/19 07:42:39;;;;;;;;;;;;;;;22.17;60.55;100441.97;5089728;28;1015;-14
2023/07/19 07:45:05;;;;;;;;;;;;;;;22.32;60.16;100443.06;5099071;28;1332;-14
2023/07/19 07:47:31;;;;;;;;;;;;;;;22.64;59.59;100440.75;5094161;28;1901;-14
2023/07/19 07:49:57;;;;;;;;;;;;;;;22.79;58.98;100440.16;5094584;28;1135;-14
2023/07/19 07:52:22;;;;;;;;;;;;;;;22.71;58.18;100438.28;5078564;28;1511;-14
2023/07/19 07:54:51;;;;;;;;;;;;;;;25.13;51.73;100441.75;5097052;28;1383;-14
2023/07/19 07:57:17;;;;;;;;;;;;;;;23.22;54.89;100440.13;5102334;28;887;-14
2023/07/19 07:59:43;;;;;;;;;;;;;;;22.35;56.86;100433.88;5097707;28;947;-14
2023/07/19 08:02:08;;;;;;;;;;;;;;;23.80;54.07;100434.84;5097910;28;1150;-14
2023/07/19 08:04:34;;;;;;;;;;;;;;;25.04;51.92;100432.88;5078671;28;1161;-14
2023/07/19 08:07:00;;;;;;;;;;;;;;;22.86;55.35;100433.13;5089132;28;1906;-14
2023/07/19 08:09:27;;;;;;;;;;;;;;;21.97;56.40;100436.81;5092179;28;1097;-14
2023/07/19 08:11:53;;;;;;;;;;;;;;;24.67;50.81;100435.19;5089526;28;1153;-16
2023/07/19 08:14:19;;;;;;;;;;;;;;;23.95;52.76;100426.09;5092084;28;1301;-14
2023/07/19 08:16:45;;;;;;;;;;;;;;;22.01;56.17;100420.28;5089699;28;1015;-14
2023/07/19 08:19:11;;;;;;;;;;;;;;;24.36;51.58;100425.22;5094958;28;1206;-14
2023/07/19 08:21:37;;;;;;;;;;;;;;;24.94;50.60;100435.78;5104918;28;1407;-14
2023/07/19 08:24:02;;;;;;;;;;;;;;;22.26;57.25;100430.28;5091498;28;1062;-14
2023/07/19 08:26:28;;;;;;;;;;;;;;;22.45;56.47;100428.41;5092146;28;1304;-14
2023/07/19 08:28:54;;;;;;;;;;;;;;;22.44;56.76;100429.41;5083783;28;1925;-16
2023/07/19 08:31:19;;;;;;;;;;;;;;;22.24;57.01;100430.47;5092118;28;1094;-14
2023/07/19 08:33:45;;;;;;;;;;;;;;;22.44;56.67;100421.38;5096052;28;1178;-13
2023/07/19 08:36:10;;;;;;;;;;;;;;;23.70;54.78;100418.91;5091187;28;1109;-14
2023/07/19 08:38:36;;;;;;;;;;;;;;;25.82;47.57;100427.66;5090597;28;1388;-13
2023/07/19 08:41:02;;;;;;;;;;;;;;;23.22;54.03;100424.84;5096800;28;1154;-15
2023/07/19 08:43:28;;;;;;;;;;;;;;;22.67;55.08;100427.00;5096979;28;1163;-13
2023/07/19 08:45:54;;;;;;;;;;;;;;;22.61;55.62;100427.66;5102644;28;1628;-12
2023/07/19 08:48:20;;;;;;;;;;;;;;;22.35;56.42;100423.16;5093551;28;1988;-13
2023/07/19 08:50:46;;;;;;;;;;;;;;;22.37;56.47;100415.81;5096015;28;995;-13
2023/07/19 08:53:11;;;;;;;;;;;;;;;23.06;56.64;100408.72;5092082;28;1063;-13
2023/07/19 08:55:39;;;;;;;;;;;;;;;25.77;46.73;100414.72;5096813;28;1045;-13
2023/07/19 08:58:04;;;;;;;;;;;;;;;23.29;52.92;100416.97;5081728;28;1320;-13
2023/07/19 09:00:33;;;;;;;;;;;;;;;22.79;53.40;100416.03;5087666;28;1079;-13
2023/07/19 09:02:59;;;;;;;;;;;;;;;24.75;49.17;100415.50;5095320;28;1088;-13
2023/07/19 09:05:25;;;;;;;;;;;;;;;24.85;49.23;100414.44;5077483;28;1102;-13
2023/07/19 09:07:50;;;;;;;;;;;;;;;22.98;54.38;100414.91;5074852;28;1910;-13
2023/07/19 09:10:16;;;;;;;;;;;;;;;22.80;55.11;100415.88;5077620;28;1199;-13
2023/07/19 09:12:42;;;;;;;;;;;;;;;23.10;53.78;100415.44;5095874;28;1097;-13
2023/07/19 09:15:09;;;;;;;;;;;;;;;22.98;53.67;100420.28;5081779;28;1050;-13
2023/07/19 09:17:35;;;;;;;;;;;;;;;22.33;55.46;100419.78;5093924;28;1301;-13
2023/07/19 09:20:00;;;;;;;;;;;;;;;24.63;49.75;100428.50;5084587;28;1118;-13
2023/07/19 09:22:27;;;;;;;;;;;;;;;25.68;48.10;100416.66;5076623;28;1045;-13
2023/07/19 09:24:54;;;;;;;;;;;;;;;22.81;54.96;100414.00;5083384;28;1230;-13
2023/07/19 09:27:24;;;;;;;;;;;;;;;23.11;54.33;100399.19;5095775;28;1910;-14
2023/07/19 09:29:50;;;;;;;;;;;;;;;23.55;53.30;100408.00;5096612;28;1121;-13
2023/07/19 09:32:15;;;;;;;;;;;;;;;22.69;55.72;100405.44;5090975;28;1129;-13
2023/07/19 09:34:41;;;;;;;;;;;;;;;23.24;54.34;100411.25;5088188;28;1027;-13
2023/07/19 09:37:06;;;;;;;;;;;;;;;23.45;55.15;100410.00;5080334;28;1051;-13
2023/07/19 09:39:33;;;;;;;;;;;;;;;22.60;57.31;100400.03;5097624;28;1473;-13
2023/07/19 09:41:59;;;;;;;;;;;;;;;22.05;58.79;100402.06;5086349;28;1371;-13
2023/07/19 09:44:25;;;;;;;;;;;;;;;23.23;56.45;100397.03;5080454;28;1122;-13
2023/07/19 09:46:50;;;;;;;;;;;;;;;23.48;55.90;100388.19;5086849;28;1909;-13
2023/07/19 09:49:16;;;;;;;;;;;;;;;23.99;54.62;100389.00;5089341;28;1225;-13
2023/07/19 09:51:42;;;;;;;;;;;;;;;24.08;53.25;100380.75;5085714;28;1332;-13
2023/07/19 09:54:09;;;;;;;;;;;;;;;24.20;50.98;100375.03;5075949;28;1075;-13
2023/07/19 09:56:34;;;;;;;;;;;;;;;22.39;52.22;100373.59;5089606;28;1232;-14
2023/07/19 09:59:00;;;;;;;;;;;;;;;24.02;52.41;100373.38;5094446;28;1106;-13
2023/07/19 10:01:26;;;;;;;;;;;;;;;26.19;46.74;100381.97;5094374;28;1121;-14
2023/07/19 10:03:51;;;;;;;;;;;;;;;23.23;53.02;100372.03;5075655;28;1008;-14
2023/07/19 10:06:17;;;;;;;;;;;;;;;23.72;52.26;100368.53;5089135;28;1113;-13
2023/07/19 10:08:43;;;;;;;;;;;;;;;23.64;52.35;100368.53;5089384;28;1984;-13
2023/07/19 10:11:20;;;;;;;;;;;;;;;24.01;52.23;100365.47;5075521;28;1210;-13
2023/07/19 10:13:56;;;;;;;;;;;;;;;22.79;54.17;100360.53;5078651;28;890;-13
2023/07/19 10:16:23;;;;;;;;;;;;;;;23.83;52.14;100362.00;5091461;28;1031;-13
2023/07/19 10:19:06;;;;;;;;;;;;;;;23.83;51.64;100359.31;5089403;28;1118;-13
2023/07/19 10:21:32;;;;;;;;;;;;;;;23.97;50.93;100368.50;5085066;28;1131;-13
2023/07/19 10:24:05;;;;;;;;;;;;;;;21.89;55.15;100366.13;5087466;28;1225;-14
2023/07/19 10:26:34;;;;;;;;;;;;;;;23.02;55.64;100364.47;5096478;28;1155;-14
2023/07/19 10:29:00;;;;;;;;;;;;;;;23.45;53.15;100365.22;5086426;28;1910;-14
2023/07/19 10:31:26;;;;;;;;;;;;;;;23.38;53.31;100364.16;5090169;28;1367;-13
2023/07/19 10:33:55;;;;;;;;;;;;;;;23.60;52.23;100360.00;5093835;28;1059;-13
2023/07/19 10:36:20;;;;;;;;;;;;;;;23.94;52.04;100352.72;5091077;28;1146;-13
2023/07/19 10:38:46;;;;;;;;;;;;;;;23.85;51.57;100343.03;5090685;28;921;-14
2023/07/19 10:41:12;;;;;;;;;;;;;;;23.79;51.40;100343.72;5087355;28;1513;-14
2023/07/19 10:43:38;;;;;;;;;;;;;;;23.16;51.68;100346.84;5092618;28;1053;-13
2023/07/19 10:46:06;;;;;;;;;;;;;;;21.38;57.29;100341.78;5087599;28;1510;-13
2023/07/19 10:48:33;;;;;;;;;;;;;;;24.30;51.68;100339.91;5096411;28;1902;-14
2023/07/19 10:50:59;;;;;;;;;;;;;;;24.03;53.41;100337.44;5098340;28;1283;-14
2023/07/19 10:53:24;;;;;;;;;;;;;;;22.39;57.55;100344.09;5093723;28;1213;-13
2023/07/19 10:55:53;;;;;;;;;;;;;;;23.66;55.73;100341.50;5082110;28;1106;-13
2023/07/19 10:58:19;;;;;;;;;;;;;;;22.23;58.03;100348.41;5089407;28;1146;-14
2023/07/19 11:00:45;;;;;;;;;;;;;;;22.66;57.64;100338.72;5085349;28;1201;-14
2023/07/19 11:03:14;;;;;;;;;;;;;;;23.54;56.21;100339.19;5096290;28;1148;-14
2023/07/19 11:05:41;;;;;;;;;;;;;;;23.65;55.84;100338.00;5085517;28;1180;-14
2023/07/19 11:08:07;;;;;;;;;;;;;;;23.72;55.03;100333.63;5098817;28;1901;-13
2023/07/19 11:10:33;;;;;;;;;;;;;;;23.78;54.85;100328.59;5098626;28;1069;-14
2023/07/19 11:12:59;;;;;;;;;;;;;;;23.84;54.55;100330.56;5089077;28;1058;-14
2023/07/19 11:15:26;;;;;;;;;;;;;;;23.43;55.46;100336.84;5080522;28;1157;-14
2023/07/19 11:17:55;;;;;;;;;;;;;;;24.01;54.28;100338.59;5088447;28;1062;-14
2023/07/19 11:20:26;;;;;;;;;;;;;;;23.64;54.72;100335.50;5094385;28;1185;-14
2023/07/19 11:22:52;;;;;;;;;;;;;;;22.30;57.69;100319.13;5078154;28;1150;-13
2023/07/19 11:25:20;;;;;;;;;;;;;;;22.67;60.41;100330.50;5094289;28;1058;-13
2023/07/19 11:27:48;;;;;;;;;;;;;;;25.90;48.55;100330.56;5096817;28;1973;-13
2023/07/19 11:30:14;;;;;;;;;;;;;;;22.11;56.75;100323.72;5097127;28;1399;-13
2023/07/19 11:32:39;;;;;;;;;;;;;;;24.62;51.59;100331.84;5081745;28;1567;-13
2023/07/19 11:35:05;;;;;;;;;;;;;;;23.88;53.90;100325.72;5084521;28;1108;-14
2023/07/19 11:37:34;;;;;;;;;;;;;;;21.97;59.12;100322.47;5095006;28;1007;-13
2023/07/19 11:40:05;;;;;;;;;;;;;;;24.61;53.05;100322.94;5096289;28;1143;-13
2023/07/19 11:42:40;;;;;;;;;;;;;;;24.01;54.31;100323.31;5085507;28;1015;-13
2023/07/19 11:45:14;;;;;;;;;;;;;;;22.71;62.46;100320.28;5097634;28;1212;-13
2023/07/19 11:47:41;;;;;;;;;;;;;;;26.00;49.17;100323.06;5097773;28;1985;-13
2023/07/19 11:50:07;;;;;;;;;;;;;;;22.68;58.39;100309.91;5090521;28;1300;-13
2023/07/19 11:52:46;;;;;;;;;;;;;;;22.56;61.46;100315.53;5098097;28;979;-13
2023/07/19 11:55:13;;;;;;;;;;;;;;;25.70;50.89;100308.72;5093234;28;1176;-14
2023/07/19 11:57:39;;;;;;;;;;;;;;;22.69;57.74;100303.56;5096494;28;1331;-14
2023/07/19 12:00:05;;;;;;;;;;;;;;;24.15;56.00;100312.88;5078693;28;1202;-13
2023/07/19 12:02:31;;;;;;;;;;;;;;;25.55;52.15;100317.59;5097256;28;1027;-13
2023/07/19 12:04:56;;;;;;;;;;;;;;;22.17;58.76;100316.88;5093676;28;1422;-13
2023/07/19 12:07:22;;;;;;;;;;;;;;;24.78;53.78;100312.09;5085915;28;1977;-13
2023/07/19 12:09:48;;;;;;;;;;;;;;;24.05;55.18;100310.38;5097305;28;1086;-14
2023/07/19 12:12:13;;;;;;;;;;;;;;;22.24;59.95;100292.97;5089439;28;1150;-13
2023/07/19 12:14:39;;;;;;;;;;;;;;;22.95;62.02;100300.75;5087819;28;1122;-13
2023/07/19 12:17:06;;;;;;;;;;;;;;;25.87;50.20;100310.22;5096283;28;1186;-14
2023/07/19 12:19:33;;;;;;;;;;;;;;;22.16;58.63;100298.28;5098069;28;1354;-13
2023/07/19 12:21:58;;;;;;;;;;;;;;;24.75;53.34;100304.38;5086527;28;968;-13
2023/07/19 12:24:24;;;;;;;;;;;;;;;23.75;55.77;100296.69;5096925;28;1082;-13
2023/07/19 12:26:50;;;;;;;;;;;;;;;22.06;60.40;100306.44;5084145;28;1906;-13
2023/07/19 12:29:15;;;;;;;;;;;;;;;23.91;56.42;100295.81;5092257;28;1129;-13
2023/07/19 12:31:41;;;;;;;;;;;;;;;25.15;52.65;100290.84;5075503;28;1159;-14
2023/07/19 12:34:06;;;;;;;;;;;;;;;22.16;59.37;100291.09;5090125;28;1218;-13
2023/07/19 12:36:32;;;;;;;;;;;;;;;25.31;51.54;100293.38;5083262;28;1078;-14
2023/07/19 12:38:57;;;;;;;;;;;;;;;23.24;56.54;100288.69;5096363;28;1117;-13
2023/07/19 12:41:23;;;;;;;;;;;;;;;22.08;59.93;100285.72;5096368;28;998;-13
2023/07/19 12:43:49;;;;;;;;;;;;;;;24.55;53.97;100292.22;5095629;28;1113;-13